^^
Meteo Knjazevac Station Historical Data
Daily Summary for June 28, 2021 Units:  Both    English   Metric
Daily Weekly Monthly Yearly Custom
  High: Low: Average:
Temperature: 33.6 °F /  0.9 °C 32.5 °F /  0.3 °C 33.2 °F /  0.7 °C
Dew Point: 33.4 °F /  0.8 °C 32.3 °F /  0.2 °C 33 °F /  0.6 °C
Humidity: 99% 99% 99%
Wind Speed: 3mph /  4.8km/h - 0.9mph /  1.4km/h
Wind Gust: 5mph /  8km/h - -
Wind- - WSW
Pressure: 29.98 in /  1015.1 hPa 29.95 in /  1014.1 hPa -
Precipitation: 0.00 in /  0 mm    
Historical Graphs
 
 
Tabular Data for June 28, 2021
Time Temperature Dew Point Pressure Wind Wind Speed Wind Gust Humidity Rainfall Rate (Hourly) solar Conditions
00:00 33.1 °F /  0.6 °C 32.8 °F /  0.4 °C 29.98in /  1015.1hPa Calm   2mph /  3.2km/h 99% 0.00in /  0mm 0 W/m2
00:10 33.1 °F /  0.6 °C 32.8 °F /  0.4 °C 29.98in /  1015.1hPa Calm     99% 0.00in /  0mm 0 W/m2
00:20 33.1 °F /  0.6 °C 32.8 °F /  0.4 °C 29.98in /  1015.1hPa NNW 1mph /  1.6km/h 2mph /  3.2km/h 99% 0.00in /  0mm 0 W/m2
00:30 33.3 °F /  0.7 °C 33 °F /  0.6 °C 29.98in /  1015.1hPa Calm   2mph /  3.2km/h 99% 0.00in /  0mm 0 W/m2
00:40 33.3 °F /  0.7 °C 33 °F /  0.6 °C 29.98in /  1015.1hPa North 1mph /  1.6km/h 2mph /  3.2km/h 99% 0.00in /  0mm 0 W/m2
00:50 33.3 °F /  0.7 °C 33 °F /  0.6 °C 29.98in /  1015.1hPa Calm     99% 0.00in /  0mm 0 W/m2
01:00 33.3 °F /  0.7 °C 33.1 °F /  0.6 °C 29.97in /  1014.8hPa Calm   1mph /  1.6km/h 99% 0.00in /  0mm 0 W/m2
01:10 33.4 °F /  0.8 °C 33.2 °F /  0.7 °C 29.97in /  1014.8hPa Calm   2mph /  3.2km/h 99% 0.00in /  0mm 0 W/m2
01:20 33.4 °F /  0.8 °C 33.2 °F /  0.7 °C 29.97in /  1014.8hPa WNW 2mph /  3.2km/h 3mph /  4.8km/h 99% 0.00in /  0mm 0 W/m2
01:30 33.4 °F /  0.8 °C 33.2 °F /  0.7 °C 29.97in /  1014.8hPa WNW 2mph /  3.2km/h 3mph /  4.8km/h 99% 0.00in /  0mm 0 W/m2
01:40 33.4 °F /  0.8 °C 33.2 °F /  0.7 °C 29.97in /  1014.8hPa WNW 1mph /  1.6km/h 2mph /  3.2km/h 99% 0.00in /  0mm 0 W/m2
01:50 33.4 °F /  0.8 °C 33.2 °F /  0.7 °C 29.97in /  1014.8hPa Calm   2mph /  3.2km/h 99% 0.00in /  0mm 0 W/m2
02:00 33.4 °F /  0.8 °C 33.2 °F /  0.7 °C 29.97in /  1014.8hPa Calm   2mph /  3.2km/h 99% 0.00in /  0mm 0 W/m2
02:10 33.4 °F /  0.8 °C 33.2 °F /  0.7 °C 29.97in /  1014.8hPa Calm   1mph /  1.6km/h 99% 0.00in /  0mm 0 W/m2
02:20 33.6 °F /  0.9 °C 33.4 °F /  0.8 °C 29.97in /  1014.8hPa Calm   2mph /  3.2km/h 99% 0.00in /  0mm 0 W/m2
02:30 33.6 °F /  0.9 °C 33.4 °F /  0.8 °C 29.97in /  1014.8hPa Calm   2mph /  3.2km/h 99% 0.00in /  0mm 0 W/m2
02:40 33.6 °F /  0.9 °C 33.4 °F /  0.8 °C 29.96in /  1014.4hPa WSW 1mph /  1.6km/h 2mph /  3.2km/h 99% 0.00in /  0mm 0 W/m2
02:50 33.6 °F /  0.9 °C 33.4 °F /  0.8 °C 29.96in /  1014.4hPa SW 1mph /  1.6km/h 2mph /  3.2km/h 99% 0.00in /  0mm 0 W/m2
03:00 33.6 °F /  0.9 °C 33.4 °F /  0.8 °C 29.96in /  1014.4hPa WNW 2mph /  3.2km/h 3mph /  4.8km/h 99% 0.00in /  0mm 0 W/m2
03:10 33.6 °F /  0.9 °C 33.4 °F /  0.8 °C 29.96in /  1014.4hPa NW 2mph /  3.2km/h 5mph /  8km/h 99% 0.00in /  0mm 0 W/m2
03:20 33.6 °F /  0.9 °C 33.4 °F /  0.8 °C 29.96in /  1014.4hPa West 2mph /  3.2km/h 5mph /  8km/h 99% 0.00in /  0mm 0 W/m2
03:30 33.6 °F /  0.9 °C 33.4 °F /  0.8 °C 29.96in /  1014.4hPa West 2mph /  3.2km/h 5mph /  8km/h 99% 0.00in /  0mm 0 W/m2
03:40 33.6 °F /  0.9 °C 33.4 °F /  0.8 °C 29.96in /  1014.4hPa West 2mph /  3.2km/h 4mph /  6.4km/h 99% 0.00in /  0mm 0 W/m2
03:50 33.6 °F /  0.9 °C 33.4 °F /  0.8 °C 29.96in /  1014.4hPa West 2mph /  3.2km/h 4mph /  6.4km/h 99% 0.00in /  0mm 0 W/m2
04:00 33.6 °F /  0.9 °C 33.4 °F /  0.8 °C 29.95in /  1014.1hPa SW 2mph /  3.2km/h 3mph /  4.8km/h 99% 0.00in /  0mm 0 W/m2
04:10 33.6 °F /  0.9 °C 33.4 °F /  0.8 °C 29.95in /  1014.1hPa Calm   3mph /  4.8km/h 99% 0.00in /  0mm 0 W/m2
04:20 33.6 °F /  0.9 °C 33.4 °F /  0.8 °C 29.95in /  1014.1hPa West 1mph /  1.6km/h 2mph /  3.2km/h 99% 0.00in /  0mm 0 W/m2
04:30 33.6 °F /  0.9 °C 33.4 °F /  0.8 °C 29.95in /  1014.1hPa West 2mph /  3.2km/h 3mph /  4.8km/h 99% 0.00in /  0mm 0 W/m2
04:40 33.4 °F /  0.8 °C 33.2 °F /  0.7 °C 29.95in /  1014.1hPa WSW 1mph /  1.6km/h 3mph /  4.8km/h 99% 0.00in /  0mm 0 W/m2
04:50 33.4 °F /  0.8 °C 33.2 °F /  0.7 °C 29.95in /  1014.1hPa WSW 1mph /  1.6km/h 2mph /  3.2km/h 99% 0.00in /  0mm 0 W/m2
05:00 33.3 °F /  0.7 °C 33 °F /  0.6 °C 29.95in /  1014.1hPa Calm   2mph /  3.2km/h 99% 0.00in /  0mm 0 W/m2
05:10 33.2 °F /  0.7 °C 33 °F /  0.6 °C 29.95in /  1014.1hPa West 3mph /  4.8km/h 5mph /  8km/h 99% 0.00in /  0mm 0 W/m2
05:20 33.1 °F /  0.6 °C 32.8 °F /  0.4 °C 29.95in /  1014.1hPa WSW 1mph /  1.6km/h 5mph /  8km/h 99% 0.00in /  0mm 0 W/m2
05:30 33.1 °F /  0.6 °C 32.8 °F /  0.4 °C 29.95in /  1014.1hPa Calm   2mph /  3.2km/h 99% 0.00in /  0mm 0 W/m2
05:40 32.9 °F /  0.5 °C 32.7 °F /  0.4 °C 29.95in /  1014.1hPa Calm   2mph /  3.2km/h 99% 0.00in /  0mm 0 W/m2
05:50 32.7 °F /  0.4 °C 32.5 °F /  0.3 °C 29.95in /  1014.1hPa SSW 1mph /  1.6km/h 2mph /  3.2km/h 99% 0.00in /  0mm 0 W/m2
06:00 32.7 °F /  0.4 °C 32.5 °F /  0.3 °C 29.96in /  1014.4hPa South 1mph /  1.6km/h 2mph /  3.2km/h 99% 0.00in /  0mm 0 W/m2
06:10 32.5 °F /  0.3 °C 32.3 °F /  0.2 °C 29.96in /  1014.4hPa Calm   2mph /  3.2km/h 99% 0.00in /  0mm 0 W/m2
06:20 32.5 °F /  0.3 °C 32.3 °F /  0.2 °C 29.96in /  1014.4hPa SSE 1mph /  1.6km/h 2mph /  3.2km/h 99% 0.00in /  0mm 0 W/m2
06:30 32.5 °F /  0.3 °C 32.3 °F /  0.2 °C 29.96in /  1014.4hPa Calm   1mph /  1.6km/h 99% 0.00in /  0mm 0 W/m2
06:40 32.7 °F /  0.4 °C 32.4 °F /  0.2 °C 29.96in /  1014.4hPa Calm   2mph /  3.2km/h 99% 0.00in /  0mm 0 W/m2
06:50 32.7 °F /  0.4 °C 32.5 °F /  0.3 °C 29.96in /  1014.4hPa SW 2mph /  3.2km/h 3mph /  4.8km/h 99% 0.00in /  0mm 0 W/m2
07:00 32.7 °F /  0.4 °C 32.5 °F /  0.3 °C 29.96in /  1014.4hPa SSE 2mph /  3.2km/h 2mph /  3.2km/h 99% 0.00in /  0mm 0 W/m2
07:10 32.5 °F /  0.3 °C 32.3 °F /  0.2 °C 29.96in /  1014.4hPa SSW 2mph /  3.2km/h 3mph /  4.8km/h 99% 0.00in /  0mm 3 W/m2
07:20 32.5 °F /  0.3 °C 32.3 °F /  0.2 °C 29.96in /  1014.4hPa SSE 1mph /  1.6km/h 2mph /  3.2km/h 99% 0.00in /  0mm 5 W/m2
07:30 32.5 °F /  0.3 °C 32.3 °F /  0.2 °C 29.96in /  1014.4hPa Calm   2mph /  3.2km/h 99% 0.00in /  0mm 11 W/m2
Knjazevac, Serbia
Compliments of Weather Underground - 2 mb